Latest Weather Observations for Flinders Reef

IDQ60801

Issued at 1:32 pm EST Tuesday 28 July 2015 (issued every 30 minutes, with the page automatically refreshed every 10 minutes)

About weather observations | Map of weather stations | Latest weather observations for QLD | Other Formats
Station Details ID: 200783 Name: FLINDERS REEF Lat: -17.72 Lon: 148.45 Height: 2.6 m
Data from the previous 72 hours. | See also: Recent months at Flinders Reef
Date/Time
EST
Temp
°C
App
Temp
°C
Dew
Point
Rel
Hum
%
Delta-T
°C
Wind Press
QNH
hPa
Press
MSL
hPa
Rain
since 9 am
mm
Dir
 
Spd
km/h
Gust
km/h
Spd
kts
Gust
kts
28/01:30pm - - - - - SE 50 57 27 31 1019.3 - -
28/01:24pm - - - - - SE 48 56 26 30 1019.4 1019.3 -
28/01:00pm - - - - - SE 46 54 25 29 1019.6 - -
28/12:30pm - - - - - SE 41 48 22 26 1020.1 - -
28/12:24pm - - - - - SE 43 - 23 - - 1020.1 -
28/12:00pm - - - - - SE 39 46 21 25 1020.5 - -
28/11:30am - - - - - SE 41 46 22 25 1020.8 - -
28/11:24am - - - - - SE 41 - 22 - - 1020.8 -
28/11:00am - - - - - ESE 41 46 22 25 1021.1 - -
28/10:30am - - - - - ESE 39 46 21 25 1021.2 - -
28/10:24am - - - - - ESE 39 - 21 - - 1021.2 -
28/10:00am - - - - - ESE 39 46 21 25 1021.4 - -
28/09:30am - - - - - ESE 37 43 20 23 1021.4 - -
28/09:24am - - - - - ESE 35 - 19 - - 1021.2 -
28/09:00am - - - - - SE 41 46 22 25 1021.2 - -
28/08:30am - - - - - ESE 35 41 19 22 1021.0 - -
28/08:24am - - - - - ESE 35 - 19 - - 1020.9 -
28/08:00am - - - - - ESE 37 43 20 23 1020.7 - -
28/07:30am - - - - - ESE 37 43 20 23 1020.5 - -
28/07:24am - - - - - ESE 37 - 20 - - 1020.3 -
28/07:00am - - - - - ESE 33 41 18 22 1020.2 - -
28/06:30am - - - - - ESE 39 44 21 24 1020.0 - -
28/06:24am - - - - - ESE 39 - 21 - - 1019.8 -
28/06:00am - - - - - ESE 35 43 19 23 1019.9 - -
28/05:30am - - - - - ESE 37 43 20 23 1019.6 - -
28/05:24am - - - - - ESE 35 - 19 - - 1019.4 -
28/05:00am - - - - - ESE 35 39 19 21 1019.3 - -
28/04:30am - - - - - ESE 37 43 20 23 1019.4 - -
28/04:24am - - - - - ESE 37 - 20 - - 1019.3 -
28/04:00am - - - - - ESE 41 46 22 25 1019.5 - -
28/03:30am - - - - - ESE 39 44 21 24 1019.7 - -
28/03:24am - - - - - ESE 39 - 21 - - 1019.5 -
28/03:00am - - - - - ESE 35 41 19 22 1020.0 - -
28/02:30am - - - - - ESE 37 43 20 23 1020.0 - -
28/02:24am - - - - - ESE 39 - 21 - - 1020.0 -
28/02:00am - - - - - ESE 37 43 20 23 1020.2 - -
28/01:30am - - - - - E 35 41 19 22 1020.3 - -
28/01:24am - - - - - E 35 - 19 - - 1020.2 -
28/01:00am - - - - - E 35 41 19 22 1020.5 - -
28/12:30am - - - - - E 33 39 18 21 1020.8 - -
28/12:24am - - - - - E 35 - 19 - - 1020.7 -
28/12:00am - - - - - E 32 35 17 19 1020.9 - -
 
Date/Time
EST
Temp
°C
App
Temp
°C
Dew
Point
Rel
Hum
%
Delta-T
°C
Wind Press
QNH
hPa
Press
MSL
hPa
Rain
since 9 am
mm
Dir
 
Spd
km/h
Gust
km/h
Spd
kts
Gust
kts
27/11:30pm - - - - - E 35 39 19 21 1021.1 - -
27/11:24pm - - - - - E 35 - 19 - - 1021.0 -
27/11:00pm - - - - - E 35 41 19 22 1021.1 - -
27/10:30pm - - - - - ESE 37 43 20 23 1021.4 - -
27/10:24pm - - - - - ESE 37 - 20 - - 1021.3 -
27/10:00pm - - - - - ESE 37 43 20 23 1021.4 - -
27/09:30pm - - - - - ESE 33 39 18 21 1021.5 - -
27/09:24pm - - - - - ESE 35 - 19 - - 1021.3 -
27/09:00pm - - - - - ESE 35 39 19 21 1021.5 - -
27/08:30pm - - - - - ESE 33 39 18 21 1021.3 - -
27/08:24pm - - - - - ESE 33 - 18 - - 1021.2 -
27/08:00pm - - - - - ESE 35 41 19 22 1021.2 - -
27/07:30pm - - - - - ESE 33 41 18 22 1020.9 - -
27/07:24pm - - - - - E 33 - 18 - - 1020.7 -
27/07:00pm - - - - - ESE 32 35 17 19 1020.5 - -
27/06:30pm - - - - - ESE 32 35 17 19 1020.0 - -
27/06:24pm - - - - - ESE 30 - 16 - - 1019.8 -
27/06:00pm - - - - - ESE 32 37 17 20 1019.6 - -
27/05:30pm - - - - - SE 32 39 17 21 1019.4 - -
27/05:24pm - - - - - SE 32 - 17 - - 1019.2 -
27/05:00pm - - - - - SE 35 43 19 23 1019.1 - -
27/04:30pm - - - - - SE 30 33 16 18 1018.8 - -
27/04:24pm - - - - - SE 28 - 15 - - 1018.6 -
27/04:00pm - - - - - SSE 28 33 15 18 1018.4 - -
27/03:30pm - - - - - SE 30 33 16 18 1018.3 - -
27/03:24pm - - - - - SE 30 - 16 - - 1018.3 -
27/03:00pm - - - - - SE 30 35 16 19 1018.3 - -
27/02:30pm - - - - - SE 30 35 16 19 1018.5 - -
27/02:24pm - - - - - SE 28 - 15 - - 1018.5 -
27/02:00pm - - - - - SE 30 35 16 19 1018.8 - -
27/01:30pm - - - - - SE 30 35 16 19 1019.2 - -
27/01:24pm - - - - - SE 30 - 16 - - 1019.2 -
27/01:00pm - - - - - SE 30 33 16 18 1019.6 - -
27/12:30pm - - - - - SE 28 32 15 17 1019.9 - -
27/12:24pm - - - - - SE 28 - 15 - - 1019.9 -
27/12:00pm - - - - - SE 28 32 15 17 1020.2 - -
27/11:30am - - - - - SE 30 33 16 18 1020.5 - -
27/11:24am - - - - - SE 30 - 16 - - 1020.6 -
27/11:00am - - - - - SE 28 32 15 17 1021.0 - -
27/10:30am - - - - - SE 28 33 15 18 1021.1 - -
27/10:24am - - - - - SE 28 - 15 - - 1021.1 -
27/10:00am - - - - - ESE 28 32 15 17 1021.4 - -
27/09:30am - - - - - ESE 28 30 15 16 1021.7 - -
27/09:24am - - - - - ESE 28 - 15 - - 1021.6 -
27/09:00am - - - - - ESE 26 28 14 15 1021.7 - -
27/08:30am - - - - - ESE 24 30 13 16 1021.6 - -
27/08:24am - - - - - ESE 24 - 13 - - 1021.5 -
27/08:00am - - - - - ESE 26 30 14 16 1021.5 - -
27/07:30am - - - - - ESE 24 30 13 16 1021.1 - -
27/07:24am - - - - - ESE 24 - 13 - - 1021.0 -
27/07:00am - - - - - ESE 26 30 14 16 1020.8 - -
27/06:30am - - - - - ESE 28 32 15 17 1020.5 - -
27/06:24am - - - - - ESE 28 - 15 - - 1020.3 -
27/06:00am - - - - - ESE 26 30 14 16 1020.0 - -
27/05:30am - - - - - ESE 24 28 13 15 1019.9 - -
27/05:24am - - - - - ESE 26 - 14 - - 1019.7 -
27/05:00am - - - - - ESE 24 28 13 15 1019.6 - -
27/04:30am - - - - - ESE 24 26 13 14 1019.4 - -
27/04:24am - - - - - ESE 22 - 12 - - 1019.3 -
27/04:00am - - - - - ESE 24 26 13 14 1019.4 - -
27/03:30am - - - - - ESE 24 28 13 15 1019.5 - -
27/03:24am - - - - - ESE 24 - 13 - - 1019.5 -
27/03:00am - - - - - ESE 24 28 13 15 1019.7 - -
27/02:30am - - - - - ESE 24 28 13 15 1019.8 - -
27/02:24am - - - - - E 22 - 12 - - 1019.7 -
27/02:00am - - - - - ESE 24 28 13 15 1020.0 - -
27/01:30am - - - - - E 24 26 13 14 1020.4 - -
27/01:24am - - - - - E 24 - 13 - - 1020.3 -
27/01:00am - - - - - ESE 24 28 13 15 1020.6 - -
27/12:30am - - - - - ESE 24 28 13 15 1020.8 - -
27/12:24am - - - - - ESE 24 - 13 - - 1020.7 -
27/12:00am - - - - - ESE 26 28 14 15 1020.9 - -
 
Date/Time
EST
Temp
°C
App
Temp
°C
Dew
Point
Rel
Hum
%
Delta-T
°C
Wind Press
QNH
hPa
Press
MSL
hPa
Rain
since 9 am
mm
Dir
 
Spd
km/h
Gust
km/h
Spd
kts
Gust
kts
26/11:30pm - - - - - ESE 28 32 15 17 1021.1 - -
26/11:24pm - - - - - ESE 28 - 15 - - 1021.0 -
26/11:00pm - - - - - ESE 28 33 15 18 1021.2 - -
26/10:30pm - - - - - ESE 26 30 14 16 1021.4 - -
26/10:24pm - - - - - ESE 26 - 14 - - 1021.4 -
26/10:00pm - - - - - ESE 26 30 14 16 1021.6 - -
26/09:30pm - - - - - ESE 20 24 11 13 1021.7 - -
26/09:24pm - - - - - ESE 20 - 11 - - 1021.6 -
26/09:00pm - - - - - ESE 20 24 11 13 1021.5 - -
26/08:30pm - - - - - ESE 20 24 11 13 1021.2 - -
26/08:24pm - - - - - ESE 20 - 11 - - 1021.0 -
26/08:00pm - - - - - E 22 24 12 13 1020.8 - -
26/07:30pm - - - - - ESE 20 24 11 13 1020.4 - -
26/07:24pm - - - - - E 20 - 11 - - 1020.2 -
26/07:00pm - - - - - E 24 28 13 15 1020.0 - -
26/06:30pm - - - - - E 22 24 12 13 1019.7 - -
26/06:24pm - - - - - E 20 - 11 - - 1019.6 -
26/06:00pm - - - - - ESE 22 26 12 14 1019.3 - -
26/05:30pm - - - - - ESE 24 28 13 15 1018.7 - -
26/05:24pm - - - - - ESE 24 - 13 - - 1018.5 -
26/05:00pm - - - - - ESE 26 30 14 16 1018.3 - -
26/04:30pm - - - - - E 28 32 15 17 1017.8 - -
26/04:24pm - - - - - E 28 - 15 - - 1017.6 -
26/04:00pm - - - - - ESE 30 33 16 18 1017.2 - -
26/03:30pm - - - - - ESE 30 35 16 19 1017.2 - -
26/03:24pm - - - - - ESE 30 - 16 - - 1017.1 -
26/03:00pm - - - - - ESE 30 33 16 18 1017.3 - -
26/02:30pm - - - - - ESE 30 35 16 19 1017.5 - -
26/02:24pm - - - - - ESE 30 - 16 - - 1017.4 -
26/02:00pm - - - - - ESE 32 35 17 19 1017.6 - -
26/01:30pm - - - - - ESE 30 33 16 18 1017.8 - -
26/01:24pm - - - - - ESE 32 - 17 - - 1017.8 -
26/01:00pm - - - - - ESE 32 35 17 19 1018.1 - -
26/12:30pm - - - - - ESE 32 35 17 19 1018.4 - -
26/12:24pm - - - - - ESE 32 - 17 - - 1018.4 -
26/12:00pm - - - - - ESE 32 35 17 19 1018.9 - -
26/11:30am - - - - - ESE 30 33 16 18 1019.3 - -
26/11:24am - - - - - ESE 32 - 17 - - 1019.3 -
26/11:00am - - - - - ESE 32 35 17 19 1019.8 - -
26/10:30am - - - - - ESE 32 35 17 19 1020.1 - -
26/10:24am - - - - - ESE 32 - 17 - - 1020.1 -
26/10:00am - - - - - ESE 32 35 17 19 1020.4 - -
26/09:30am - - - - - ESE 32 35 17 19 1020.6 - -
26/09:24am - - - - - ESE 32 - 17 - - 1020.6 -
26/09:00am - - - - - ESE 33 37 18 20 1020.6 - -
26/08:30am - - - - - ESE 32 35 17 19 1020.4 - -
26/08:24am - - - - - ESE 32 - 17 - - 1020.2 -
26/08:00am - - - - - ESE 32 35 17 19 1020.2 - -
26/07:30am - - - - - ESE 32 35 17 19 1019.8 - -
26/07:24am - - - - - ESE 33 - 18 - - 1019.7 -
26/07:00am - - - - - ESE 30 33 16 18 1019.5 - -
26/06:30am - - - - - ESE 32 35 17 19 1019.2 - -
26/06:24am - - - - - ESE 32 - 17 - - 1019.1 -
26/06:00am - - - - - ESE 32 37 17 20 1018.9 - -
26/05:30am - - - - - ESE 32 35 17 19 1018.8 - -
26/05:24am - - - - - ESE 32 - 17 - - 1018.7 -
26/05:00am - - - - - ESE 30 35 16 19 1018.6 - -
26/04:30am - - - - - ESE 30 33 16 18 1018.5 - -
26/04:24am - - - - - ESE 28 - 15 - - 1018.4 -
26/04:00am - - - - - ESE 30 35 16 19 1018.5 - -
26/03:30am - - - - - ESE 30 32 16 17 1018.6 - -
26/03:24am - - - - - SE 30 - 16 - - 1018.6 -
26/03:00am - - - - - ESE 32 35 17 19 1018.9 - -
26/02:30am - - - - - ESE 28 35 15 19 1019.0 - -
26/02:24am - - - - - SE 28 - 15 - - 1019.0 -
26/02:00am - - - - - ESE 28 32 15 17 1019.4 - -
26/01:30am - - - - - ESE 30 33 16 18 1019.7 - -
26/01:24am - - - - - ESE 28 - 15 - - 1019.6 -
26/01:00am - - - - - ESE 30 33 16 18 1020.0 - -
26/12:30am - - - - - ESE 28 32 15 17 1020.1 - -
26/12:24am - - - - - ESE 28 - 15 - - 1020.2 -
26/12:00am - - - - - ESE 28 33 15 18 1020.4 - -
 
Date/Time
EST
Temp
°C
App
Temp
°C
Dew
Point
Rel
Hum
%
Delta-T
°C
Wind Press
QNH
hPa
Press
MSL
hPa
Rain
since 9 am
mm
Dir
 
Spd
km/h
Gust
km/h
Spd
kts
Gust
kts
25/11:30pm - - - - - E 28 33 15 18 1020.5 - -
25/11:24pm - - - - - E 28 - 15 - - 1020.5 -
25/11:00pm - - - - - E 28 30 15 16 1020.7 - -
25/10:30pm - - - - - E 28 32 15 17 1020.8 - -
25/10:24pm - - - - - E 26 - 14 - - 1020.8 -
25/10:00pm - - - - - E 28 32 15 17 1021.1 - -
25/09:30pm - - - - - E 28 32 15 17 1021.0 - -
25/09:24pm - - - - - E 26 - 14 - - 1021.0 -
25/09:00pm - - - - - ESE 22 26 12 14 1020.8 - -
25/08:30pm - - - - - ESE 24 28 13 15 1020.6 - -
25/08:24pm - - - - - ESE 24 - 13 - - 1020.4 -
25/08:00pm - - - - - E 24 28 13 15 1020.3 - -
25/07:30pm - - - - - ESE 24 28 13 15 1020.0 - -
25/07:24pm - - - - - ESE 24 - 13 - - 1019.8 -
25/07:00pm - - - - - ESE 26 30 14 16 1019.5 - -
25/06:30pm - - - - - ESE 26 28 14 15 1019.1 - -
25/06:24pm - - - - - ESE 24 - 13 - - 1018.9 -
25/06:00pm - - - - - ESE 22 28 12 15 1018.6 - -
25/05:30pm - - - - - ESE 24 28 13 15 1018.3 - -
25/05:24pm - - - - - ESE 24 - 13 - - 1018.1 -
25/05:00pm - - - - - ESE 22 28 12 15 1017.9 - -
25/04:30pm - - - - - ESE 22 26 12 14 1017.8 - -
25/04:24pm - - - - - ESE 22 - 12 - - 1017.7 -
25/04:00pm - - - - - SE 24 28 13 15 1017.7 - -
25/03:30pm - - - - - SE 24 28 13 15 1017.6 - -
25/03:24pm - - - - - SE 24 - 13 - - 1017.5 -
25/03:00pm - - - - - SE 24 28 13 15 1017.7 - -
25/02:30pm - - - - - ESE 22 26 12 14 1017.9 - -
25/02:24pm - - - - - ESE 22 - 12 - - 1017.8 -
25/02:00pm - - - - - ESE 22 26 12 14 1018.1 - -

Other Formats:

Comma delimited format used in spreadsheet applications
http://www.bom.gov.au/fwo/IDQ60801/IDQ60801.94290.axf

JavaScript Object Notation format (JSON) in row-major order
http://www.bom.gov.au/fwo/IDQ60801/IDQ60801.94290.json